Time;durP1;ratioP1;P1;durP2;ratioP2;P2;SDS_P1;SDS_P2;PMS_P1;PMS_P2;Temp;Humidity;BMP_temperature;BMP_pressure;BME280_temperature;BME280_humidity;BME280_pressure;Samples;Min_cycle;Max_cycle;Signal;HPM_P1;HPM_P2
2023/04/13 00:00:46;;;;;;;57.57;2.80;;;;;;;;;;5092866;28;20473;-67
2023/04/13 00:03:15;;;;;;;58.87;2.60;;;;;;;;;;5093298;28;20446;-68
2023/04/13 00:05:44;;;;;;;57.57;2.73;;;;;;;;;;5093008;28;20454;-68
2023/04/13 00:08:11;;;;;;;57.77;2.70;;;;;;;;;;5092717;28;20474;-68
2023/04/13 00:10:40;;;;;;;58.10;2.73;;;;;;;;;;5092601;28;20443;-67
2023/04/13 00:13:08;;;;;;;56.83;2.40;;;;;;;;;;5092859;28;20450;-68
2023/04/13 00:15:36;;;;;;;56.97;2.77;;;;;;;;;;5092286;28;20455;-68
2023/04/13 00:18:05;;;;;;;57.13;2.50;;;;;;;;;;5092334;28;20479;-69
2023/04/13 00:20:34;;;;;;;58.07;2.80;;;;;;;;;;5092585;28;20447;-68
2023/04/13 00:23:01;;;;;;;57.80;2.70;;;;;;;;;;5092251;28;20500;-68
2023/04/13 00:25:28;;;;;;;61.20;2.50;;;;;;;;;;5092484;28;20457;-69
2023/04/13 00:27:55;;;;;;;58.10;2.73;;;;;;;;;;5092434;28;20800;-69
2023/04/13 00:30:22;;;;;;;58.30;2.60;;;;;;;;;;5092258;28;20450;-67
2023/04/13 00:32:50;;;;;;;58.57;2.97;;;;;;;;;;5092524;28;20439;-68
2023/04/13 00:35:18;;;;;;;57.40;2.63;;;;;;;;;;5092650;28;20492;-68
2023/04/13 00:37:47;;;;;;;57.70;2.83;;;;;;;;;;5092439;28;20945;-68
2023/04/13 00:40:15;;;;;;;57.27;2.87;;;;;;;;;;5092139;28;20450;-69
2023/04/13 00:42:43;;;;;;;58.47;2.90;;;;;;;;;;5092145;28;20478;-69
2023/04/13 00:45:12;;;;;;;57.80;2.83;;;;;;;;;;5092402;28;20488;-68
2023/04/13 00:47:40;;;;;;;57.50;2.70;;;;;;;;;;5092318;28;20455;-68
2023/04/13 00:50:08;;;;;;;57.57;2.70;;;;;;;;;;5091834;28;20451;-68
2023/04/13 00:52:37;;;;;;;57.70;2.70;;;;;;;;;;5092071;28;20451;-68
2023/04/13 00:55:06;;;;;;;57.17;2.53;;;;;;;;;;5092509;28;20446;-68
2023/04/13 00:57:34;;;;;;;57.70;3.20;;;;;;;;;;5091710;28;20442;-68
2023/04/13 01:00:05;;;;;;;58.10;2.70;;;;;;;;;;5091690;28;20469;-68
2023/04/13 01:02:33;;;;;;;57.80;3.00;;;;;;;;;;5092028;28;20486;-68
2023/04/13 01:05:01;;;;;;;56.97;2.60;;;;;;;;;;5091816;28;20490;-68
2023/04/13 01:07:32;;;;;;;57.67;2.90;;;;;;;;;;5091931;28;21030;-68
2023/04/13 01:10:01;;;;;;;56.67;2.80;;;;;;;;;;5091833;28;20775;-68
2023/04/13 01:12:35;;;;;;;59.27;2.70;;;;;;;;;;5091861;28;20446;-68
2023/04/13 01:15:08;;;;;;;58.57;3.10;;;;;;;;;;5091941;28;20482;-68
2023/04/13 01:17:37;;;;;;;56.90;2.83;;;;;;;;;;5091718;28;20812;-68
2023/04/13 01:20:10;;;;;;;58.55;2.85;;;;;;;;;;5091779;28;20446;-68
2023/04/13 01:22:40;;;;;;;59.40;2.63;;;;;;;;;;5091933;28;20224;-69
2023/04/13 01:25:29;;;;;;;56.60;2.50;;;;;;;;;;5091786;28;20552;-68
2023/04/13 01:28:01;;;;;;;57.50;2.80;;;;;;;;;;5095512;28;20522;-68
2023/04/13 01:30:30;;;;;;;56.92;2.60;;;;;;;;;;5095922;28;20449;-68
2023/04/13 01:32:58;;;;;;;57.45;2.70;;;;;;;;;;5096033;28;20200;-68
2023/04/13 01:35:25;;;;;;;58.00;3.20;;;;;;;;;;5095783;28;20216;-68
2023/04/13 01:37:53;;;;;;;58.00;2.80;;;;;;;;;;5095637;28;20442;-68
2023/04/13 01:40:21;;;;;;;57.30;3.00;;;;;;;;;;5095368;28;20446;-69
2023/04/13 01:42:48;;;;;;;57.38;2.60;;;;;;;;;;5095515;28;21061;-70
2023/04/13 01:45:18;;;;;;;57.20;2.60;;;;;;;;;;5095847;28;20200;-67
2023/04/13 01:47:48;;;;;;;57.67;3.10;;;;;;;;;;5095578;28;20210;-68
2023/04/13 01:50:18;;;;;;;60.55;2.78;;;;;;;;;;5095591;28;20442;-68
2023/04/13 01:52:46;;;;;;;58.38;3.35;;;;;;;;;;5095609;28;20201;-68
2023/04/13 01:55:14;;;;;;;57.47;2.70;;;;;;;;;;5095210;28;20291;-68
2023/04/13 01:57:44;;;;;;;58.80;2.90;;;;;;;;;;5093970;28;20303;-68
2023/04/13 02:00:14;;;;;;;58.37;2.83;;;;;;;;;;5095239;28;20215;-68
2023/04/13 02:02:43;;;;;;;58.57;2.80;;;;;;;;;;5095143;28;20486;-69
2023/04/13 02:05:11;;;;;;;57.50;2.97;;;;;;;;;;5095303;28;20810;-68
2023/04/13 02:07:40;;;;;;;57.90;2.60;;;;;;;;;;5095084;28;20455;-68
2023/04/13 02:10:08;;;;;;;59.27;2.93;;;;;;;;;;5094731;28;20450;-68
2023/04/13 02:12:35;;;;;;;57.80;2.70;;;;;;;;;;5095170;28;20445;-69
2023/04/13 02:15:02;;;;;;;58.00;2.97;;;;;;;;;;5095164;28;20200;-68
2023/04/13 02:17:29;;;;;;;58.53;2.80;;;;;;;;;;5094936;28;20204;-68
2023/04/13 02:19:58;;;;;;;58.93;3.50;;;;;;;;;;5094499;28;20466;-68
2023/04/13 02:22:25;;;;;;;56.40;2.50;;;;;;;;;;5094741;28;20852;-69
2023/04/13 02:24:54;;;;;;;59.60;2.80;;;;;;;;;;5094822;28;20462;-68
2023/04/13 02:27:21;;;;;;;57.80;2.80;;;;;;;;;;5094916;28;20281;-68
2023/04/13 02:29:48;;;;;;;57.90;3.10;;;;;;;;;;5094438;28;20470;-68
2023/04/13 02:32:15;;;;;;;58.03;2.87;;;;;;;;;;5094555;28;20492;-69
2023/04/13 02:34:43;;;;;;;60.10;3.20;;;;;;;;;;5094632;28;20507;-68
2023/04/13 02:37:11;;;;;;;57.42;2.80;;;;;;;;;;5094304;28;20446;-69
2023/04/13 02:39:38;;;;;;;59.15;3.13;;;;;;;;;;5094444;28;20224;-68
2023/04/13 02:42:05;;;;;;;58.40;3.00;;;;;;;;;;5094522;28;20315;-69
2023/04/13 02:44:32;;;;;;;57.72;2.75;;;;;;;;;;5094600;28;20204;-68
2023/04/13 02:47:00;;;;;;;57.47;2.63;;;;;;;;;;5094574;28;20204;-69
2023/04/13 02:49:27;;;;;;;58.20;2.70;;;;;;;;;;5093982;28;20250;-68
2023/04/13 02:51:54;;;;;;;58.50;2.93;;;;;;;;;;5094299;28;20862;-68
2023/04/13 02:54:23;;;;;;;56.85;2.50;;;;;;;;;;5094401;28;20537;-69
2023/04/13 02:56:50;;;;;;;60.45;3.22;;;;;;;;;;5094144;28;20205;-68
2023/04/13 02:59:17;;;;;;;57.37;2.73;;;;;;;;;;5093943;28;20224;-68
2023/04/13 03:01:45;;;;;;;60.72;2.72;;;;;;;;;;5094134;28;20451;-68
2023/04/13 03:04:13;;;;;;;57.25;2.60;;;;;;;;;;5094000;28;20200;-68
2023/04/13 03:06:41;;;;;;;58.05;2.80;;;;;;;;;;5094434;28;20212;-68
2023/04/13 03:09:08;;;;;;;58.60;3.20;;;;;;;;;;5093601;28;20777;-69
2023/04/13 03:11:37;;;;;;;57.38;2.60;;;;;;;;;;5094081;28;20205;-68
2023/04/13 03:14:04;;;;;;;59.45;2.90;;;;;;;;;;5093923;28;20699;-68
2023/04/13 03:16:31;;;;;;;57.78;3.05;;;;;;;;;;5093808;28;20208;-68
2023/04/13 03:18:58;;;;;;;58.55;2.85;;;;;;;;;;5093660;28;20232;-69
2023/04/13 03:21:25;;;;;;;60.13;3.38;;;;;;;;;;5093918;28;20207;-68
2023/04/13 03:23:52;;;;;;;59.00;3.15;;;;;;;;;;5093489;28;20228;-70
2023/04/13 03:26:19;;;;;;;57.40;3.00;;;;;;;;;;5093597;28;20687;-68
2023/04/13 03:28:48;;;;;;;57.22;2.80;;;;;;;;;;5093309;28;20224;-69
2023/04/13 03:31:16;;;;;;;58.33;3.00;;;;;;;;;;5093537;28;20556;-68
2023/04/13 03:33:43;;;;;;;57.60;2.50;;;;;;;;;;5093741;28;20283;-69
2023/04/13 03:36:11;;;;;;;60.30;2.90;;;;;;;;;;5093632;28;20648;-68
2023/04/13 03:38:38;;;;;;;58.28;2.80;;;;;;;;;;5093023;28;20717;-68
2023/04/13 03:41:05;;;;;;;60.33;2.50;;;;;;;;;;5093361;28;20207;-69
2023/04/13 03:43:32;;;;;;;58.57;2.83;;;;;;;;;;5093204;28;20224;-68
2023/04/13 03:46:01;;;;;;;62.63;2.73;;;;;;;;;;5093229;28;20446;-68
2023/04/13 03:48:28;;;;;;;57.13;2.70;;;;;;;;;;5092723;28;20481;-68
2023/04/13 03:50:56;;;;;;;57.17;2.80;;;;;;;;;;5077732;28;20682;-70
2023/04/13 03:53:23;;;;;;;58.55;2.80;;;;;;;;;;5073187;28;20644;-68
2023/04/13 03:55:51;;;;;;;59.00;3.00;;;;;;;;;;5072892;28;20208;-68
2023/04/13 03:58:18;;;;;;;57.10;2.50;;;;;;;;;;5072446;28;20237;-67
2023/04/13 04:00:45;;;;;;;59.00;3.10;;;;;;;;;;5072659;28;20463;-69
2023/04/13 04:03:16;;;;;;;58.28;2.97;;;;;;;;;;5072796;28;20294;-68
2023/04/13 04:05:43;;;;;;;58.17;2.83;;;;;;;;;;5072664;28;20255;-68
2023/04/13 04:08:10;;;;;;;57.53;2.85;;;;;;;;;;5072596;28;20232;-69
2023/04/13 04:10:37;;;;;;;57.30;2.70;;;;;;;;;;5072335;28;20227;-68
2023/04/13 04:13:04;;;;;;;65.20;3.63;;;;;;;;;;5072493;28;20454;-69
2023/04/13 04:15:32;;;;;;;57.80;3.10;;;;;;;;;;5072612;28;20469;-68
2023/04/13 04:17:59;;;;;;;57.97;2.90;;;;;;;;;;5072403;28;20474;-68
2023/04/13 04:20:27;;;;;;;60.05;3.20;;;;;;;;;;5072125;28;20458;-68
2023/04/13 04:22:59;;;;;;;58.50;3.60;;;;;;;;;;5072204;28;20312;-68
2023/04/13 04:25:26;;;;;;;58.70;2.83;;;;;;;;;;5072186;28;20504;-69
2023/04/13 04:27:56;;;;;;;59.78;2.75;;;;;;;;;;5072432;28;20577;-68
2023/04/13 04:30:23;;;;;;;59.80;3.17;;;;;;;;;;5072271;28;20208;-68
2023/04/13 04:32:53;;;;;;;59.50;3.50;;;;;;;;;;5072125;28;20961;-69
2023/04/13 04:35:20;;;;;;;61.70;3.30;;;;;;;;;;5072359;28;20458;-67
2023/04/13 04:37:49;;;;;;;58.13;2.87;;;;;;;;;;5072054;28;20526;-68
2023/04/13 04:40:16;;;;;;;58.55;2.80;;;;;;;;;;5071535;28;20454;-68
2023/04/13 04:42:43;;;;;;;58.00;3.25;;;;;;;;;;5072212;28;20243;-68
2023/04/13 04:45:10;;;;;;;60.00;3.30;;;;;;;;;;5072195;28;20460;-68
2023/04/13 04:47:40;;;;;;;60.60;3.72;;;;;;;;;;5072326;28;20443;-67
2023/04/13 04:50:08;;;;;;;58.17;2.93;;;;;;;;;;5071641;28;20201;-68
2023/04/13 04:52:35;;;;;;;59.73;3.00;;;;;;;;;;5071933;28;20837;-68
2023/04/13 04:55:05;;;;;;;58.40;2.87;;;;;;;;;;5072018;28;20453;-67
2023/04/13 04:57:32;;;;;;;59.28;3.05;;;;;;;;;;5072471;28;20455;-67
2023/04/13 05:00:00;;;;;;;57.23;2.33;;;;;;;;;;5071380;28;20794;-68
2023/04/13 05:02:27;;;;;;;60.43;3.30;;;;;;;;;;5071550;28;20505;-67
2023/04/13 05:04:56;;;;;;;58.37;3.23;;;;;;;;;;5071676;28;20462;-68
2023/04/13 05:07:23;;;;;;;58.20;3.00;;;;;;;;;;5071959;28;20477;-67
2023/04/13 05:09:50;;;;;;;60.33;3.53;;;;;;;;;;5071405;28;20225;-68
2023/04/13 05:12:18;;;;;;;58.00;2.92;;;;;;;;;;5072217;28;20720;-67
2023/04/13 05:14:47;;;;;;;60.90;3.33;;;;;;;;;;5071608;28;20213;-68
2023/04/13 05:17:16;;;;;;;60.60;3.33;;;;;;;;;;5072182;28;20501;-67
2023/04/13 05:19:44;;;;;;;59.40;2.80;;;;;;;;;;5071191;28;20566;-69
2023/04/13 05:22:11;;;;;;;59.20;3.03;;;;;;;;;;5071836;28;20447;-67
2023/04/13 05:24:39;;;;;;;57.37;2.83;;;;;;;;;;5071426;28;20487;-67
2023/04/13 05:27:08;;;;;;;58.50;2.70;;;;;;;;;;5071522;28;20451;-68
2023/04/13 05:29:37;;;;;;;59.10;2.80;;;;;;;;;;5071187;28;20567;-68
2023/04/13 05:32:04;;;;;;;58.73;2.80;;;;;;;;;;5071415;28;20451;-68
2023/04/13 05:34:32;;;;;;;58.17;2.77;;;;;;;;;;5071770;28;20439;-68
2023/04/13 05:36:59;;;;;;;59.33;3.20;;;;;;;;;;5071336;28;20558;-69
2023/04/13 05:39:27;;;;;;;58.73;3.40;;;;;;;;;;5071044;28;20467;-68
2023/04/13 05:41:54;;;;;;;60.33;3.10;;;;;;;;;;5071513;28;20837;-67
2023/04/13 05:44:21;;;;;;;57.47;2.70;;;;;;;;;;5071241;28;20486;-67
2023/04/13 05:46:50;;;;;;;59.63;2.93;;;;;;;;;;5071596;28;20451;-67
2023/04/13 05:49:17;;;;;;;60.70;2.73;;;;;;;;;;5070929;28;20474;-67
2023/04/13 05:51:44;;;;;;;60.77;3.00;;;;;;;;;;5071469;28;20447;-69
2023/04/13 05:54:12;;;;;;;61.27;3.43;;;;;;;;;;5071039;28;20825;-68
2023/04/13 05:56:39;;;;;;;62.50;3.73;;;;;;;;;;5071114;28;20501;-67
2023/04/13 05:59:07;;;;;;;60.80;4.87;;;;;;;;;;5070743;28;20533;-68
2023/04/13 06:01:35;;;;;;;59.50;3.10;;;;;;;;;;5071176;28;20459;-67
2023/04/13 06:04:04;;;;;;;59.80;3.10;;;;;;;;;;5071277;28;20487;-67
2023/04/13 06:06:31;;;;;;;57.90;2.97;;;;;;;;;;5071440;28;20447;-68
2023/04/13 06:08:59;;;;;;;59.17;3.40;;;;;;;;;;5070862;28;20463;-68
2023/04/13 06:11:26;;;;;;;58.23;2.87;;;;;;;;;;5071201;28;20469;-67
2023/04/13 06:13:53;;;;;;;58.07;3.50;;;;;;;;;;5074407;28;20454;-67
2023/04/13 06:16:22;;;;;;;59.20;3.30;;;;;;;;;;5074864;28;20455;-67
2023/04/13 06:18:49;;;;;;;59.03;3.33;;;;;;;;;;5074449;28;20476;-68
2023/04/13 06:21:17;;;;;;;63.77;3.60;;;;;;;;;;5074782;28;20444;-68
2023/04/13 06:23:44;;;;;;;58.60;3.30;;;;;;;;;;5074520;28;20548;-67
2023/04/13 06:26:11;;;;;;;58.90;3.20;;;;;;;;;;5074499;28;20455;-68
2023/04/13 06:28:39;;;;;;;63.10;3.33;;;;;;;;;;5074140;28;20474;-67
2023/04/13 06:31:07;;;;;;;59.90;3.57;;;;;;;;;;5074534;28;20471;-68
2023/04/13 06:33:34;;;;;;;67.90;3.23;;;;;;;;;;5074593;28;20455;-68
2023/04/13 06:36:01;;;;;;;58.70;3.20;;;;;;;;;;5074515;28;20455;-67
2023/04/13 06:38:30;;;;;;;58.50;2.60;;;;;;;;;;5074266;28;20467;-70
2023/04/13 06:41:01;;;;;;;60.10;3.50;;;;;;;;;;5074182;28;20447;-67
2023/04/13 06:43:28;;;;;;;60.70;3.53;;;;;;;;;;5074364;28;20493;-68
2023/04/13 06:45:58;;;;;;;61.87;3.77;;;;;;;;;;5074365;28;20450;-67
2023/04/13 06:48:26;;;;;;;58.73;2.97;;;;;;;;;;5074227;28;20463;-67
2023/04/13 06:50:54;;;;;;;63.20;3.23;;;;;;;;;;5073981;28;20443;-68
2023/04/13 06:53:21;;;;;;;59.17;2.73;;;;;;;;;;5073983;28;20479;-67
2023/04/13 06:55:50;;;;;;;63.40;3.30;;;;;;;;;;5074255;28;20526;-68
2023/04/13 06:58:17;;;;;;;58.30;2.97;;;;;;;;;;5074001;28;20471;-67
2023/04/13 07:00:45;;;;;;;59.47;3.20;;;;;;;;;;5073865;28;20450;-67
2023/04/13 07:03:12;;;;;;;62.23;3.10;;;;;;;;;;5074122;28;20479;-67
2023/04/13 07:05:39;;;;;;;60.47;3.10;;;;;;;;;;5073799;28;20450;-68
2023/04/13 07:08:06;;;;;;;60.93;3.00;;;;;;;;;;5073632;28;20467;-68
2023/04/13 07:10:36;;;;;;;66.07;3.40;;;;;;;;;;5073687;28;20443;-67
2023/04/13 07:13:05;;;;;;;58.37;2.83;;;;;;;;;;5073741;28;20985;-67
2023/04/13 07:15:33;;;;;;;61.20;2.77;;;;;;;;;;5073745;28;20481;-67
2023/04/13 07:18:00;;;;;;;61.17;3.10;;;;;;;;;;5073520;28;20470;-67
2023/04/13 07:20:27;;;;;;;59.03;2.63;;;;;;;;;;5073153;28;20466;-67
2023/04/13 07:22:54;;;;;;;64.60;2.57;;;;;;;;;;5073481;28;20452;-67
2023/04/13 07:25:21;;;;;;;64.70;3.50;;;;;;;;;;5072709;28;20452;-68
2023/04/13 07:27:48;;;;;;;60.80;3.50;;;;;;;;;;5073292;28;20979;-67
2023/04/13 07:30:17;;;;;;;64.03;3.40;;;;;;;;;;5073289;28;20439;-68
2023/04/13 07:32:44;;;;;;;58.93;2.90;;;;;;;;;;5073369;28;20451;-67
2023/04/13 07:35:11;;;;;;;62.00;3.27;;;;;;;;;;5073180;28;20440;-68
2023/04/13 07:37:38;;;;;;;58.33;3.00;;;;;;;;;;5073361;28;20820;-67
2023/04/13 07:40:06;;;;;;;61.50;3.30;;;;;;;;;;5072954;28;20454;-68
2023/04/13 07:42:33;;;;;;;60.00;2.70;;;;;;;;;;5073095;28;20948;-68
2023/04/13 07:45:00;;;;;;;59.60;3.30;;;;;;;;;;5073262;28;20491;-68
2023/04/13 07:47:29;;;;;;;65.70;3.47;;;;;;;;;;5072883;28;20548;-68
2023/04/13 07:49:56;;;;;;;61.67;3.50;;;;;;;;;;5072740;28;20471;-67
2023/04/13 07:52:23;;;;;;;59.63;3.23;;;;;;;;;;5073019;28;20451;-67
2023/04/13 07:54:50;;;;;;;61.60;3.50;;;;;;;;;;5073012;28;20826;-67
2023/04/13 07:57:20;;;;;;;58.50;3.07;;;;;;;;;;5072780;28;20447;-67
2023/04/13 07:59:47;;;;;;;59.70;2.77;;;;;;;;;;5072370;28;20479;-67
2023/04/13 08:02:15;;;;;;;57.90;2.80;;;;;;;;;;5072949;28;20451;-69
2023/04/13 08:04:44;;;;;;;59.20;3.00;;;;;;;;;;5072776;28;20529;-68
2023/04/13 08:07:11;;;;;;;58.40;2.90;;;;;;;;;;5073153;28;21069;-67
2023/04/13 08:09:40;;;;;;;61.23;3.10;;;;;;;;;;5072300;28;20459;-68
2023/04/13 08:12:07;;;;;;;58.27;3.03;;;;;;;;;;5072736;28;20452;-67
2023/04/13 08:14:35;;;;;;;60.27;3.23;;;;;;;;;;5072490;28;20439;-68
2023/04/13 08:17:03;;;;;;;59.87;2.80;;;;;;;;;;5072433;28;20455;-67
2023/04/13 08:19:30;;;;;;;60.40;2.97;;;;;;;;;;5072007;28;20467;-67
2023/04/13 08:21:59;;;;;;;57.97;2.40;;;;;;;;;;5072466;28;20443;-67
2023/04/13 08:24:26;;;;;;;58.70;3.23;;;;;;;;;;5072230;28;20487;-67
2023/04/13 08:26:53;;;;;;;59.23;3.00;;;;;;;;;;5072327;28;20826;-68
2023/04/13 08:29:21;;;;;;;59.57;3.27;;;;;;;;;;5071754;28;20565;-69
2023/04/13 08:31:48;;;;;;;60.47;3.23;;;;;;;;;;5072426;28;20546;-68
2023/04/13 08:34:17;;;;;;;59.60;3.30;;;;;;;;;;5072215;28;20528;-68
2023/04/13 08:36:44;;;;;;;59.37;3.20;;;;;;;;;;5071999;28;20558;-67
2023/04/13 08:39:13;;;;;;;61.53;2.93;;;;;;;;;;5071891;28;20494;-67
2023/04/13 08:41:44;;;;;;;60.00;3.13;;;;;;;;;;5072008;28;20546;-67
2023/04/13 08:44:12;;;;;;;59.80;2.57;;;;;;;;;;5072266;28;20491;-68
2023/04/13 08:46:41;;;;;;;59.00;3.20;;;;;;;;;;5072209;28;20454;-68
2023/04/13 08:49:08;;;;;;;62.33;3.27;;;;;;;;;;5071628;28;20467;-67
2023/04/13 08:51:35;;;;;;;66.03;3.20;;;;;;;;;;5072122;28;20548;-68
2023/04/13 08:54:03;;;;;;;59.40;3.40;;;;;;;;;;5071898;28;20440;-68
2023/04/13 08:56:32;;;;;;;58.70;3.13;;;;;;;;;;5072390;28;20457;-68
2023/04/13 08:59:03;;;;;;;60.50;3.10;;;;;;;;;;5071616;28;20645;-67
2023/04/13 09:01:31;;;;;;;59.30;2.80;;;;;;;;;;5072111;28;20443;-68
2023/04/13 09:04:03;;;;;;;59.37;3.20;;;;;;;;;;5072480;28;20475;-68
2023/04/13 09:06:34;;;;;;;62.90;3.77;;;;;;;;;;5071826;28;20823;-69
2023/04/13 09:09:04;;;;;;;60.17;3.27;;;;;;;;;;5071674;28;20497;-69
2023/04/13 09:11:33;;;;;;;60.50;3.10;;;;;;;;;;5071892;28;21057;-68
2023/04/13 09:14:00;;;;;;;62.00;3.50;;;;;;;;;;5071725;28;20970;-69
2023/04/13 09:16:27;;;;;;;61.07;3.60;;;;;;;;;;5071779;28;20543;-67
2023/04/13 09:18:55;;;;;;;59.70;3.10;;;;;;;;;;5071190;28;20475;-68
2023/04/13 09:21:22;;;;;;;59.83;2.90;;;;;;;;;;5071816;28;20939;-69
2023/04/13 09:23:56;;;;;;;60.27;3.10;;;;;;;;;;5071831;28;20473;-68
2023/04/13 09:26:23;;;;;;;58.87;3.30;;;;;;;;;;5071866;28;20451;-69
2023/04/13 09:28:52;;;;;;;62.07;3.97;;;;;;;;;;5071367;28;20467;-68
2023/04/13 09:31:19;;;;;;;62.37;4.40;;;;;;;;;;5071754;28;20453;-67
2023/04/13 09:33:47;;;;;;;59.00;3.03;;;;;;;;;;5071439;28;20536;-68
2023/04/13 09:36:15;;;;;;;59.97;3.93;;;;;;;;;;5071726;28;20534;-67
2023/04/13 09:38:44;;;;;;;62.03;3.07;;;;;;;;;;5071125;28;20984;-67
2023/04/13 09:41:11;;;;;;;60.00;3.20;;;;;;;;;;5071450;28;20952;-67
2023/04/13 09:43:39;;;;;;;58.97;2.83;;;;;;;;;;5071435;28;20461;-68
2023/04/13 09:46:12;;;;;;;59.80;3.10;;;;;;;;;;5071281;28;20447;-68
2023/04/13 09:48:39;;;;;;;59.47;2.90;;;;;;;;;;5074691;28;20462;-66
2023/04/13 09:51:08;;;;;;;58.00;2.87;;;;;;;;;;5075240;28;20966;-66
2023/04/13 09:53:42;;;;;;;59.70;2.70;;;;;;;;;;5075441;28;20474;-68
2023/04/13 09:56:09;;;;;;;65.03;3.17;;;;;;;;;;5075795;28;20447;-67
2023/04/13 09:58:38;;;;;;;58.87;2.83;;;;;;;;;;5074581;28;20550;-67
2023/04/13 10:01:05;;;;;;;60.80;2.90;;;;;;;;;;5074922;28;20948;-68
2023/04/13 10:03:34;;;;;;;64.40;3.50;;;;;;;;;;5075207;28;20792;-67
2023/04/13 10:06:02;;;;;;;62.10;3.00;;;;;;;;;;5075262;28;20483;-67
2023/04/13 10:08:29;;;;;;;60.30;3.20;;;;;;;;;;5074865;28;20479;-68
2023/04/13 10:10:57;;;;;;;60.57;2.80;;;;;;;;;;5074821;28;20504;-67
2023/04/13 10:13:26;;;;;;;60.07;3.90;;;;;;;;;;5074759;28;20447;-67
2023/04/13 10:16:02;;;;;;;63.00;2.97;;;;;;;;;;5074758;28;20449;-68
2023/04/13 10:18:33;;;;;;;59.47;3.07;;;;;;;;;;5074748;28;20466;-68
2023/04/13 10:21:02;;;;;;;60.20;2.90;;;;;;;;;;5074716;28;20959;-67
2023/04/13 10:23:30;;;;;;;58.90;3.17;;;;;;;;;;5074610;28;20516;-66
2023/04/13 10:25:59;;;;;;;58.77;3.30;;;;;;;;;;5074487;28;20483;-69
2023/04/13 10:28:26;;;;;;;58.13;2.80;;;;;;;;;;5074673;28;20617;-67
2023/04/13 10:30:54;;;;;;;61.70;4.33;;;;;;;;;;5074517;28;20451;-67
2023/04/13 10:33:21;;;;;;;59.10;3.17;;;;;;;;;;5074471;28;20459;-67
2023/04/13 10:35:58;;;;;;;59.57;3.07;;;;;;;;;;5074690;28;20444;-67
2023/04/13 10:38:27;;;;;;;58.30;3.20;;;;;;;;;;5074169;28;20482;-67
2023/04/13 10:40:54;;;;;;;61.60;3.83;;;;;;;;;;5074389;28;20443;-67
2023/04/13 10:43:28;;;;;;;59.23;2.63;;;;;;;;;;5074439;28;20902;-67
2023/04/13 10:46:07;;;;;;;59.43;2.70;;;;;;;;;;5074355;28;20490;-67
2023/04/13 10:48:35;;;;;;;59.33;2.97;;;;;;;;;;5074253;28;20493;-67
2023/04/13 10:51:02;;;;;;;59.87;3.40;;;;;;;;;;5074383;28;20896;-67
2023/04/13 10:53:32;;;;;;;58.63;2.70;;;;;;;;;;5074268;28;20477;-67
2023/04/13 10:56:00;;;;;;;63.20;3.30;;;;;;;;;;5074021;28;20443;-67
2023/04/13 10:58:27;;;;;;;61.77;3.13;;;;;;;;;;5073936;28;20493;-68
2023/04/13 11:00:55;;;;;;;60.20;3.33;;;;;;;;;;5074270;28;20447;-68
2023/04/13 11:03:22;;;;;;;57.83;2.90;;;;;;;;;;5073841;28;20819;-66
2023/04/13 11:05:56;;;;;;;61.00;3.33;;;;;;;;;;5074052;28;20505;-67
2023/04/13 11:08:23;;;;;;;61.93;3.20;;;;;;;;;;5074033;28;20500;-67
2023/04/13 11:10:52;;;;;;;64.30;3.13;;;;;;;;;;5073674;28;20454;-67
2023/04/13 11:13:20;;;;;;;61.47;2.67;;;;;;;;;;5073786;28;20479;-68
2023/04/13 11:15:48;;;;;;;59.60;3.00;;;;;;;;;;5073554;28;20463;-68
2023/04/13 11:18:24;;;;;;;61.20;3.97;;;;;;;;;;5073405;28;20482;-67
2023/04/13 11:20:52;;;;;;;61.40;3.40;;;;;;;;;;5073637;28;20933;-67
2023/04/13 11:23:19;;;;;;;63.67;3.67;;;;;;;;;;5073609;28;20469;-67
2023/04/13 11:25:55;;;;;;;59.00;2.80;;;;;;;;;;5073499;28;20486;-67
2023/04/13 11:28:23;;;;;;;61.37;3.27;;;;;;;;;;5073193;28;20995;-67
2023/04/13 11:30:54;;;;;;;61.60;2.80;;;;;;;;;;5073072;28;20448;-67
2023/04/13 11:33:25;;;;;;;60.57;3.50;;;;;;;;;;5073471;28;20452;-67
2023/04/13 11:35:52;;;;;;;60.50;3.30;;;;;;;;;;5073448;28;20455;-67
2023/04/13 11:38:20;;;;;;;61.63;4.20;;;;;;;;;;5073345;28;20467;-67
2023/04/13 11:40:47;;;;;;;61.20;3.90;;;;;;;;;;5072877;28;20528;-68
2023/04/13 11:43:16;;;;;;;60.80;3.73;;;;;;;;;;5073403;28;20454;-68
2023/04/13 11:45:46;;;;;;;64.97;3.93;;;;;;;;;;5073195;28;20584;-67
2023/04/13 11:48:13;;;;;;;61.60;3.70;;;;;;;;;;5072961;28;20471;-68
2023/04/13 11:50:41;;;;;;;63.60;4.20;;;;;;;;;;5072811;28;20474;-67
2023/04/13 11:53:09;;;;;;;59.90;3.63;;;;;;;;;;5072841;28;20451;-67
2023/04/13 11:55:38;;;;;;;62.77;3.83;;;;;;;;;;5073311;28;20497;-67
2023/04/13 11:58:09;;;;;;;62.27;3.57;;;;;;;;;;5072980;28;20839;-67
2023/04/13 12:00:40;;;;;;;61.07;3.93;;;;;;;;;;5072729;28;20455;-67
2023/04/13 12:03:13;;;;;;;62.23;3.30;;;;;;;;;;5072935;28;20455;-67
2023/04/13 12:05:41;;;;;;;61.67;3.93;;;;;;;;;;5072603;28;20532;-67
2023/04/13 12:08:08;;;;;;;62.40;3.63;;;;;;;;;;5072478;28;21052;-67
2023/04/13 12:10:36;;;;;;;61.80;3.47;;;;;;;;;;5071876;28;21011;-67
2023/04/13 12:13:05;;;;;;;64.47;4.27;;;;;;;;;;5072590;28;20962;-69
2023/04/13 12:15:33;;;;;;;61.20;3.83;;;;;;;;;;5072609;28;20443;-67
2023/04/13 12:18:02;;;;;;;59.67;4.00;;;;;;;;;;5072459;28;20467;-67
2023/04/13 12:20:35;;;;;;;64.47;4.27;;;;;;;;;;5072141;28;20451;-67
2023/04/13 12:23:02;;;;;;;59.67;4.10;;;;;;;;;;5072591;28;20566;-67
2023/04/13 12:25:30;;;;;;;63.20;4.57;;;;;;;;;;5072614;28;20532;-67
2023/04/13 12:27:57;;;;;;;61.07;3.77;;;;;;;;;;5072021;28;20964;-67
2023/04/13 12:30:26;;;;;;;59.00;3.73;;;;;;;;;;5071989;28;20443;-67
2023/04/13 12:32:54;;;;;;;59.40;3.47;;;;;;;;;;5072263;28;20733;-67
2023/04/13 12:35:22;;;;;;;63.00;3.50;;;;;;;;;;5072154;28;20505;-68
2023/04/13 12:37:51;;;;;;;60.20;3.20;;;;;;;;;;5072265;28;20936;-65
2023/04/13 12:40:19;;;;;;;63.30;3.13;;;;;;;;;;5072024;28;20820;-68
2023/04/13 12:42:46;;;;;;;61.30;2.70;;;;;;;;;;5072125;28;20447;-67
2023/04/13 12:45:14;;;;;;;62.50;3.37;;;;;;;;;;5071846;28;20501;-69
2023/04/13 12:47:41;;;;;;;59.27;2.53;;;;;;;;;;5071937;28;20472;-67
2023/04/13 12:50:09;;;;;;;57.27;2.87;;;;;;;;;;5071657;28;20940;-68
2023/04/13 12:52:39;;;;;;;62.10;2.70;;;;;;;;;;5072254;28;20458;-68
2023/04/13 12:55:07;;;;;;;58.97;2.90;;;;;;;;;;5072004;28;20451;-68
2023/04/13 12:57:34;;;;;;;58.57;2.70;;;;;;;;;;5071920;28;20454;-67
2023/04/13 13:00:06;;;;;;;59.23;3.10;;;;;;;;;;5071375;28;20464;-67
2023/04/13 13:02:35;;;;;;;59.77;2.90;;;;;;;;;;5072101;28;20451;-68
2023/04/13 13:05:03;;;;;;;58.30;2.33;;;;;;;;;;5071982;28;20490;-68
2023/04/13 13:07:30;;;;;;;56.93;2.33;;;;;;;;;;5072074;28;20444;-68
2023/04/13 13:09:59;;;;;;;58.67;2.70;;;;;;;;;;5071529;28;20480;-68
2023/04/13 13:12:28;;;;;;;57.17;2.27;;;;;;;;;;5071828;28;20487;-68
2023/04/13 13:14:56;;;;;;;58.27;2.67;;;;;;;;;;5071689;28;21015;-66
2023/04/13 13:17:23;;;;;;;58.00;2.60;;;;;;;;;;5071889;28;20504;-67
2023/04/13 13:19:50;;;;;;;58.00;3.30;;;;;;;;;;5071407;28;20833;-67
2023/04/13 13:22:17;;;;;;;58.43;2.90;;;;;;;;;;5072853;28;20443;-67
2023/04/13 13:24:45;;;;;;;58.03;2.73;;;;;;;;;;5075990;28;20469;-67
2023/04/13 13:27:13;;;;;;;58.20;2.77;;;;;;;;;;5075599;28;20572;-66
2023/04/13 13:29:40;;;;;;;58.93;2.70;;;;;;;;;;5075585;28;20474;-69
2023/04/13 13:32:08;;;;;;;59.20;3.57;;;;;;;;;;5075631;28;20967;-69
2023/04/13 13:34:35;;;;;;;60.30;3.10;;;;;;;;;;5075617;28;20451;-69
2023/04/13 13:37:02;;;;;;;59.27;2.93;;;;;;;;;;5075708;28;20443;-68
2023/04/13 13:39:29;;;;;;;59.17;2.83;;;;;;;;;;5075169;28;20471;-69
2023/04/13 13:41:57;;;;;;;61.07;3.20;;;;;;;;;;5075446;28;20462;-69
2023/04/13 13:44:25;;;;;;;59.80;2.83;;;;;;;;;;5075648;28;20447;-69
2023/04/13 13:46:52;;;;;;;59.17;3.83;;;;;;;;;;5075612;28;20485;-69
2023/04/13 13:49:20;;;;;;;58.20;3.30;;;;;;;;;;5075059;28;20462;-69
2023/04/13 13:51:47;;;;;;;61.73;3.00;;;;;;;;;;5075429;28;20527;-69
2023/04/13 13:54:14;;;;;;;58.10;2.80;;;;;;;;;;5075253;28;20447;-69
2023/04/13 13:56:42;;;;;;;58.27;2.90;;;;;;;;;;5075235;28;20948;-67
2023/04/13 13:59:09;;;;;;;58.23;3.13;;;;;;;;;;5074852;28;20467;-68
2023/04/13 14:01:37;;;;;;;60.07;3.77;;;;;;;;;;5075101;28;20459;-67
2023/04/13 14:04:05;;;;;;;58.00;2.60;;;;;;;;;;5075117;28;20458;-67
2023/04/13 14:06:32;;;;;;;59.87;3.50;;;;;;;;;;5075030;28;21094;-67
2023/04/13 14:09:00;;;;;;;62.70;3.50;;;;;;;;;;5074711;28;20471;-67
2023/04/13 14:11:27;;;;;;;61.17;3.60;;;;;;;;;;5075018;28;20439;-67
2023/04/13 14:13:54;;;;;;;58.33;3.20;;;;;;;;;;5074983;28;20443;-68
2023/04/13 14:16:22;;;;;;;58.20;3.30;;;;;;;;;;5074870;28;20447;-67
2023/04/13 14:18:50;;;;;;;59.40;3.40;;;;;;;;;;5074595;28;20477;-67
2023/04/13 14:21:20;;;;;;;58.17;3.27;;;;;;;;;;5074605;28;20461;-67
2023/04/13 14:23:47;;;;;;;58.60;3.10;;;;;;;;;;5074531;28;20455;-68
2023/04/13 14:26:15;;;;;;;60.03;3.47;;;;;;;;;;5074479;28;21029;-67
2023/04/13 14:28:42;;;;;;;58.10;3.20;;;;;;;;;;5074263;28;20467;-68
2023/04/13 14:31:10;;;;;;;58.97;3.67;;;;;;;;;;5074622;28;20447;-67
2023/04/13 14:33:37;;;;;;;62.13;4.40;;;;;;;;;;5073922;28;20445;-68
2023/04/13 14:36:07;;;;;;;67.30;4.70;;;;;;;;;;5074702;28;20489;-68